createdAt,value
2023-04-12T00:00:14.154Z,9.70
2023-04-12T00:02:45.013Z,9.60
2023-04-12T00:05:14.174Z,9.50
2023-04-12T00:07:46.983Z,9.50
2023-04-12T00:10:15.711Z,9.40
2023-04-12T00:12:44.154Z,9.40
2023-04-12T00:15:12.963Z,9.40
2023-04-12T00:17:41.571Z,9.30
2023-04-12T00:20:12.955Z,9.20
2023-04-12T00:22:42.750Z,9.20
2023-04-12T00:25:11.892Z,9.10
2023-04-12T00:27:40.873Z,9.10
2023-04-12T00:30:10.199Z,9.10
2023-04-12T00:32:38.825Z,9.10
2023-04-12T00:35:08.289Z,9.00
2023-04-12T00:37:38.771Z,9.00
2023-04-12T00:40:10.368Z,9.00
2023-04-12T00:42:39.182Z,8.90
2023-04-12T00:45:09.409Z,8.90
2023-04-12T00:47:38.737Z,8.80
2023-04-12T00:50:08.585Z,8.80
2023-04-12T00:52:40.088Z,8.80
2023-04-12T00:55:10.590Z,8.80
2023-04-12T00:57:40.617Z,8.80
2023-04-12T01:00:11.889Z,8.70
2023-04-12T01:02:42.832Z,8.70
2023-04-12T01:05:14.939Z,8.70
2023-04-12T01:07:54.457Z,8.70
2023-04-12T01:10:34.331Z,8.80
2023-04-12T01:13:12.747Z,8.80
2023-04-12T01:15:58.366Z,8.80
2023-04-12T01:18:29.926Z,8.80
2023-04-12T01:21:05.417Z,8.80
2023-04-12T01:23:53.172Z,8.80
2023-04-12T01:26:37.214Z,8.80
2023-04-12T01:29:12.014Z,8.70
2023-04-12T01:31:42.918Z,8.70
2023-04-12T01:34:13.474Z,8.70
2023-04-12T01:36:45.259Z,8.70
2023-04-12T01:39:14.057Z,8.70
2023-04-12T01:41:45.389Z,8.70
2023-04-12T01:44:18.755Z,8.70
2023-04-12T01:46:48.267Z,8.70
2023-04-12T01:49:17.918Z,8.70
2023-04-12T01:51:53.901Z,8.70
2023-04-12T01:54:25.732Z,8.70
2023-04-12T01:56:59.099Z,8.70
2023-04-12T01:59:33.667Z,8.70
2023-04-12T02:02:03.788Z,8.70
2023-04-12T02:04:33.513Z,8.70
2023-04-12T02:07:02.194Z,8.70
2023-04-12T02:09:30.791Z,8.70
2023-04-12T02:11:59.316Z,8.70
2023-04-12T02:14:31.588Z,8.60
2023-04-12T02:17:02.488Z,8.60
2023-04-12T02:19:31.477Z,8.70
2023-04-12T02:21:59.915Z,8.60
2023-04-12T02:24:28.598Z,8.60
2023-04-12T02:26:57.038Z,8.70
2023-04-12T02:29:25.959Z,8.70
2023-04-12T02:31:55.839Z,8.70
2023-04-12T02:34:24.287Z,8.70
2023-04-12T02:36:52.839Z,8.70
2023-04-12T02:39:22.327Z,8.70
2023-04-12T02:41:51.164Z,8.70
2023-04-12T02:44:19.604Z,8.60
2023-04-12T02:46:47.929Z,8.60
2023-04-12T02:49:17.564Z,8.60
2023-04-12T02:51:46.375Z,8.60
2023-04-12T02:54:15.043Z,8.70
2023-04-12T02:56:43.994Z,8.70
2023-04-12T02:59:12.524Z,8.70
2023-04-12T03:01:40.924Z,8.70
2023-04-12T03:04:09.496Z,8.70
2023-04-12T03:06:40.370Z,8.60
2023-04-12T03:09:08.930Z,8.60
2023-04-12T03:11:37.384Z,8.60
2023-04-12T03:14:05.934Z,8.60
2023-04-12T03:16:35.707Z,8.60
2023-04-12T03:19:04.372Z,8.60
2023-04-12T03:21:33.297Z,8.60
2023-04-12T03:24:04.390Z,8.50
2023-04-12T03:26:33.179Z,8.60
2023-04-12T03:29:05.154Z,8.50
2023-04-12T03:31:33.810Z,8.50
2023-04-12T03:34:02.456Z,8.50
2023-04-12T03:36:31.617Z,8.50
2023-04-12T03:39:00.080Z,8.40
2023-04-12T03:41:30.184Z,8.40
2023-04-12T03:43:58.993Z,8.40
2023-04-12T03:46:27.874Z,8.40
2023-04-12T03:48:56.947Z,8.40
2023-04-12T03:51:27.076Z,8.30
2023-04-12T03:53:55.775Z,8.30
2023-04-12T03:56:24.439Z,8.30
2023-04-12T03:58:54.555Z,8.30
2023-04-12T04:01:23.841Z,8.30
2023-04-12T04:03:52.619Z,8.30
2023-04-12T04:06:21.790Z,8.30
2023-04-12T04:08:50.229Z,8.20
2023-04-12T04:11:18.914Z,8.20
2023-04-12T04:13:47.714Z,8.20
2023-04-12T04:16:18.248Z,8.20
2023-04-12T04:18:46.760Z,8.20
2023-04-12T04:21:15.552Z,8.20
2023-04-12T04:23:47.995Z,8.20
2023-04-12T04:26:17.058Z,8.20
2023-04-12T04:28:46.396Z,8.20
2023-04-12T04:31:17.742Z,8.20
2023-04-12T04:33:47.731Z,8.20
2023-04-12T04:36:16.766Z,8.20
2023-04-12T04:38:46.181Z,8.20
2023-04-12T04:41:14.612Z,8.20
2023-04-12T04:43:43.052Z,8.30
2023-04-12T04:46:11.641Z,8.30
2023-04-12T04:48:41.011Z,8.30
2023-04-12T04:51:12.208Z,8.30
2023-04-12T04:53:40.911Z,8.30
2023-04-12T04:56:10.657Z,8.30
2023-04-12T04:58:39.332Z,8.30
2023-04-12T05:01:08.585Z,8.30
2023-04-12T05:03:37.911Z,8.30
2023-04-12T05:06:06.830Z,8.30
2023-04-12T05:08:36.690Z,8.40
2023-04-12T05:11:05.492Z,8.40
2023-04-12T05:13:34.100Z,8.40
2023-04-12T05:16:02.371Z,8.40
2023-04-12T05:18:30.815Z,8.30
2023-04-12T05:21:03.693Z,8.30
2023-04-12T05:23:34.174Z,8.40
2023-04-12T05:26:03.933Z,8.30
2023-04-12T05:28:33.508Z,8.30
2023-04-12T05:31:02.156Z,8.40
2023-04-12T05:33:33.393Z,8.30
2023-04-12T05:36:02.152Z,8.40
2023-04-12T05:38:30.578Z,8.40
2023-04-12T05:40:59.034Z,8.40
2023-04-12T05:43:28.791Z,8.40
2023-04-12T05:45:57.395Z,8.50
2023-04-12T05:48:25.915Z,8.40
2023-04-12T05:50:55.070Z,8.40
2023-04-12T05:53:23.991Z,8.40
2023-04-12T05:55:54.360Z,8.40
2023-04-12T05:58:22.910Z,8.50
2023-04-12T06:00:54.601Z,8.50
2023-04-12T06:03:25.343Z,8.60
2023-04-12T06:05:54.364Z,8.50
2023-04-12T06:08:22.918Z,8.60
2023-04-12T06:10:51.367Z,8.60
2023-04-12T06:13:19.678Z,8.60
2023-04-12T06:15:48.033Z,8.60
2023-04-12T06:18:17.890Z,8.60
2023-04-12T06:20:46.450Z,8.70
2023-04-12T06:23:14.884Z,8.70
2023-04-12T06:25:43.327Z,8.70
2023-04-12T06:28:11.880Z,8.70
2023-04-12T06:30:40.320Z,8.70
2023-04-12T06:33:08.998Z,8.80
2023-04-12T06:35:38.885Z,8.80
2023-04-12T06:38:07.448Z,8.80
2023-04-12T06:40:36.241Z,8.80
2023-04-12T06:43:04.680Z,8.90
2023-04-12T06:45:33.249Z,8.80
2023-04-12T06:48:01.773Z,8.90
2023-04-12T06:50:30.371Z,8.90
2023-04-12T06:53:00.118Z,8.90
2023-04-12T06:55:29.343Z,8.90
2023-04-12T06:57:57.964Z,9.00
2023-04-12T07:00:26.656Z,9.00
2023-04-12T07:02:55.359Z,9.00
2023-04-12T07:05:24.291Z,9.00
2023-04-12T07:07:52.697Z,9.10
2023-04-12T07:10:22.707Z,9.10
2023-04-12T07:12:52.097Z,9.10
2023-04-12T07:15:20.773Z,9.10
2023-04-12T07:17:49.305Z,9.20
2023-04-12T07:20:18.040Z,9.20
2023-04-12T07:22:47.415Z,9.20
2023-04-12T07:25:15.988Z,9.20
2023-04-12T07:27:45.975Z,9.30
2023-04-12T07:30:14.900Z,9.30
2023-04-12T07:32:43.424Z,9.30
2023-04-12T07:35:12.024Z,9.40
2023-04-12T07:37:40.458Z,9.40
2023-04-12T07:40:09.748Z,9.50
2023-04-12T07:42:38.306Z,9.50
2023-04-12T07:45:09.268Z,9.50
2023-04-12T07:47:37.849Z,9.50
2023-04-12T07:50:07.609Z,9.60
2023-04-12T07:52:36.162Z,9.70
2023-04-12T07:55:04.979Z,9.70
2023-04-12T07:57:34.185Z,9.80
2023-04-12T08:00:02.789Z,9.80
2023-04-12T08:02:32.887Z,9.80
2023-04-12T08:05:01.376Z,9.80
2023-04-12T08:07:29.916Z,9.80
2023-04-12T08:09:58.363Z,9.90
2023-04-12T08:12:27.281Z,10.20
2023-04-12T08:14:55.718Z,10.30
2023-04-12T08:17:24.342Z,10.50
2023-04-12T08:19:54.170Z,10.80
2023-04-12T08:22:22.597Z,11.30
2023-04-12T08:24:51.072Z,11.40
2023-04-12T08:27:19.601Z,11.40
2023-04-12T08:29:48.052Z,11.40
2023-04-12T08:32:16.754Z,11.40
2023-04-12T08:34:47.446Z,11.40
2023-04-12T08:37:17.211Z,11.60
2023-04-12T08:39:46.005Z,11.60
2023-04-12T08:42:16.132Z,11.90
2023-04-12T08:44:45.526Z,11.90
2023-04-12T08:47:13.976Z,11.90
2023-04-12T08:49:42.404Z,12.20
2023-04-12T08:52:11.690Z,12.10
2023-04-12T08:54:41.569Z,12.20
2023-04-12T08:57:10.732Z,12.40
2023-04-12T08:59:40.738Z,12.40
2023-04-12T09:02:09.410Z,12.40
2023-04-12T09:04:49.726Z,12.40
2023-04-12T09:07:18.425Z,12.20
2023-04-12T09:09:49.253Z,12.20
2023-04-12T09:12:20.584Z,12.40
2023-04-12T09:14:49.031Z,12.50
2023-04-12T09:17:25.204Z,12.80
2023-04-12T09:19:56.081Z,12.80
2023-04-12T09:22:35.486Z,13.10
2023-04-12T09:25:05.699Z,13.20
2023-04-12T09:27:47.604Z,12.80
2023-04-12T09:30:18.352Z,12.30
2023-04-12T09:32:49.339Z,12.20
2023-04-12T09:35:17.999Z,12.30
2023-04-12T09:37:46.517Z,12.40
2023-04-12T09:40:17.056Z,12.20
2023-04-12T09:42:53.703Z,12.00
2023-04-12T09:45:24.405Z,11.70
2023-04-12T09:47:54.041Z,11.70
2023-04-12T09:50:23.856Z,11.70
2023-04-12T09:52:53.868Z,11.80
2023-04-12T09:55:25.344Z,12.00
2023-04-12T09:57:55.390Z,12.00
2023-04-12T10:00:29.363Z,12.20
2023-04-12T10:02:59.978Z,12.00
2023-04-12T10:05:29.295Z,12.00
2023-04-12T10:07:58.603Z,12.00
2023-04-12T10:10:28.561Z,11.90
2023-04-12T10:12:57.192Z,12.00
2023-04-12T10:15:26.243Z,12.30
2023-04-12T10:17:57.773Z,12.30
2023-04-12T10:20:29.865Z,12.30
2023-04-12T10:22:59.835Z,12.60
2023-04-12T10:25:31.901Z,12.90
2023-04-12T10:28:16.053Z,12.80
2023-04-12T10:30:44.721Z,13.10
2023-04-12T10:33:17.008Z,13.20
2023-04-12T10:35:57.655Z,13.60
2023-04-12T10:38:33.628Z,13.80
2023-04-12T10:41:17.608Z,14.30
2023-04-12T10:43:46.697Z,14.20
2023-04-12T10:46:50.485Z,13.60
2023-04-12T10:49:19.230Z,13.10
2023-04-12T10:52:16.067Z,13.10
2023-04-12T10:54:44.520Z,13.00
2023-04-12T10:57:49.712Z,13.10
2023-04-12T11:00:18.805Z,13.00
2023-04-12T11:03:10.222Z,13.20
2023-04-12T11:06:09.242Z,13.30
2023-04-12T11:08:42.207Z,13.50
2023-04-12T11:11:21.456Z,13.40
2023-04-12T11:13:57.037Z,13.30
2023-04-12T11:16:26.806Z,13.40
2023-04-12T11:18:55.678Z,13.30
2023-04-12T11:21:25.658Z,13.30
2023-04-12T11:23:56.607Z,13.60
2023-04-12T11:26:25.689Z,13.50
2023-04-12T11:28:56.361Z,13.30
2023-04-12T11:31:24.919Z,13.60
2023-04-12T11:33:53.258Z,14.30
2023-04-12T11:36:21.700Z,14.20
2023-04-12T11:38:50.395Z,13.90
2023-04-12T11:41:18.840Z,13.90
2023-04-12T11:43:49.303Z,13.80
2023-04-12T11:46:20.206Z,13.60
2023-04-12T11:48:48.623Z,13.70
2023-04-12T11:51:25.410Z,13.60
2023-04-12T11:53:59.294Z,14.00
2023-04-12T11:56:29.637Z,14.70
2023-04-12T11:58:57.954Z,14.50
2023-04-12T12:01:29.388Z,14.50
2023-04-12T12:03:58.437Z,14.20
2023-04-12T12:06:28.601Z,14.10
2023-04-12T12:08:57.478Z,14.10
2023-04-12T12:11:26.789Z,13.90
2023-04-12T12:13:57.567Z,14.10
2023-04-12T12:16:29.227Z,14.40
2023-04-12T12:18:58.568Z,14.70
2023-04-12T12:21:27.870Z,14.40
2023-04-12T12:23:58.841Z,14.10
2023-04-12T12:26:29.278Z,14.20
2023-04-12T12:29:00.357Z,14.00
2023-04-12T12:31:31.385Z,14.10
2023-04-12T12:34:04.347Z,14.00
2023-04-12T12:36:36.351Z,14.10
2023-04-12T12:39:08.043Z,13.90
2023-04-12T12:41:36.861Z,13.80
2023-04-12T12:44:05.414Z,13.70
2023-04-12T12:49:06.486Z,13.60
2023-04-12T12:51:35.057Z,13.50
2023-04-12T12:54:03.743Z,13.50
2023-04-12T12:56:32.653Z,13.20
2023-04-12T12:59:01.101Z,12.90
2023-04-12T13:01:29.701Z,12.80
2023-04-12T13:03:59.584Z,12.80
2023-04-12T13:06:28.449Z,13.00
2023-04-12T13:08:57.170Z,13.60
2023-04-12T13:11:25.817Z,13.80
2023-04-12T13:13:54.140Z,13.50
2023-04-12T13:16:25.343Z,13.40
2023-04-12T13:18:56.403Z,13.30
2023-04-12T13:21:27.544Z,13.40
2023-04-12T13:23:56.325Z,13.40
2023-04-12T13:26:26.149Z,13.10
2023-04-12T13:28:54.521Z,13.80
2023-04-12T13:31:23.268Z,13.70
2023-04-12T13:33:51.983Z,13.80
2023-04-12T13:36:20.424Z,13.80
2023-04-12T13:38:50.668Z,14.00
2023-04-12T13:41:19.299Z,14.30
2023-04-12T13:43:48.049Z,14.10
2023-04-12T13:46:16.507Z,13.70
2023-04-12T13:48:45.386Z,13.60
2023-04-12T13:51:13.830Z,13.60
2023-04-12T13:53:42.562Z,13.80
2023-04-12T13:56:13.136Z,14.00
2023-04-12T13:58:41.795Z,13.60
2023-04-12T14:01:11.037Z,14.20
2023-04-12T14:03:39.888Z,14.30
2023-04-12T14:06:09.667Z,14.50
2023-04-12T14:08:38.234Z,14.70
2023-04-12T14:11:07.568Z,14.50
2023-04-12T14:13:37.624Z,14.30
2023-04-12T14:16:07.240Z,13.70
2023-04-12T14:18:35.800Z,13.00
2023-04-12T14:21:04.602Z,13.00
2023-04-12T14:23:33.888Z,12.70
2023-04-12T14:26:02.450Z,12.70
2023-04-12T14:28:31.839Z,12.70
2023-04-12T14:31:04.286Z,12.70
2023-04-12T14:33:34.242Z,12.50
2023-04-12T14:36:05.071Z,12.50
2023-04-12T14:38:33.573Z,12.50
2023-04-12T14:41:02.204Z,12.50
2023-04-12T14:43:30.775Z,12.70
2023-04-12T14:45:59.225Z,12.90
2023-04-12T14:48:28.988Z,12.70
2023-04-12T14:50:57.527Z,12.80
2023-04-12T14:53:26.039Z,12.80
2023-04-12T14:55:54.534Z,12.90
2023-04-12T14:58:22.972Z,12.80
2023-04-12T15:00:51.418Z,12.90
2023-04-12T15:03:21.153Z,12.90
2023-04-12T15:05:51.052Z,12.90
2023-04-12T15:08:20.511Z,12.90
2023-04-12T15:10:48.895Z,12.90
2023-04-12T15:13:17.437Z,12.40
2023-04-12T15:15:47.451Z,12.40
2023-04-12T15:18:16.740Z,12.30
2023-04-12T15:20:45.177Z,12.30
2023-04-12T15:23:16.018Z,12.10
2023-04-12T15:25:44.340Z,12.20
2023-04-12T15:28:12.667Z,12.40
2023-04-12T15:30:41.016Z,12.50
2023-04-12T15:33:10.549Z,12.30
2023-04-12T15:35:38.909Z,12.50
2023-04-12T15:38:07.267Z,12.70
2023-04-12T15:40:37.151Z,12.50
2023-04-12T15:43:05.714Z,12.50
2023-04-12T15:45:34.402Z,12.80
2023-04-12T15:48:02.855Z,12.60
2023-04-12T15:50:31.177Z,12.60
2023-04-12T15:52:59.736Z,12.50
2023-04-12T15:55:28.162Z,12.60
2023-04-12T15:57:58.277Z,12.60
2023-04-12T16:00:27.801Z,12.40
2023-04-12T16:02:57.394Z,12.40
2023-04-12T16:05:27.679Z,12.20
2023-04-12T16:07:56.848Z,12.50
2023-04-12T16:10:25.397Z,12.20
2023-04-12T16:12:54.922Z,12.10
2023-04-12T16:15:30.438Z,11.90
2023-04-12T16:17:59.345Z,11.90
2023-04-12T16:20:27.702Z,11.70
2023-04-12T16:22:56.268Z,11.70
2023-04-12T16:25:25.763Z,11.70
2023-04-12T16:27:54.471Z,11.40
2023-04-12T16:30:23.808Z,11.30
2023-04-12T16:32:53.794Z,11.30
2023-04-12T16:35:25.187Z,11.10
2023-04-12T16:37:53.729Z,11.10
2023-04-12T16:40:22.468Z,11.00
2023-04-12T16:42:50.850Z,10.80
2023-04-12T16:45:19.848Z,10.60
2023-04-12T16:47:48.713Z,10.80
2023-04-12T16:50:18.696Z,10.80
2023-04-12T16:52:47.013Z,10.60
2023-04-12T16:55:16.061Z,10.70
2023-04-12T16:57:46.061Z,10.50
2023-04-12T17:00:20.640Z,10.50
2023-04-12T17:02:50.879Z,10.30
2023-04-12T17:05:21.708Z,10.40
2023-04-12T17:07:51.937Z,10.20
2023-04-12T17:10:22.133Z,10.20
2023-04-12T17:12:52.807Z,10.20
2023-04-12T17:15:28.460Z,10.30
2023-04-12T17:18:03.046Z,10.30
2023-04-12T17:20:33.712Z,10.20
2023-04-12T17:23:03.264Z,10.00
2023-04-12T17:25:32.622Z,9.90
2023-04-12T17:28:01.659Z,9.90
2023-04-12T17:30:30.903Z,9.90
2023-04-12T17:33:01.464Z,9.90
2023-04-12T17:35:30.583Z,9.80
2023-04-12T17:38:00.961Z,9.80
2023-04-12T17:40:29.630Z,9.80
2023-04-12T17:42:58.192Z,9.70
2023-04-12T17:45:26.883Z,9.60
2023-04-12T17:47:55.830Z,9.60
2023-04-12T17:50:24.614Z,9.60
2023-04-12T17:52:53.155Z,9.60
2023-04-12T17:55:25.915Z,9.60
2023-04-12T17:58:14.284Z,9.50
2023-04-12T18:00:43.563Z,9.40
2023-04-12T18:03:13.509Z,9.40
2023-04-12T18:05:42.133Z,9.40
2023-04-12T18:08:11.171Z,9.30
2023-04-12T18:10:42.253Z,9.30
2023-04-12T18:13:11.169Z,9.20
2023-04-12T18:15:39.751Z,9.20
2023-04-12T18:18:08.323Z,9.10
2023-04-12T18:20:37.202Z,9.10
2023-04-12T18:23:05.539Z,9.10
2023-04-12T18:25:35.368Z,9.00
2023-04-12T18:28:05.660Z,9.00
2023-04-12T18:30:34.204Z,9.10
2023-04-12T18:33:03.980Z,9.00
2023-04-12T18:35:32.893Z,8.90
2023-04-12T18:38:01.450Z,8.80
2023-04-12T18:40:29.912Z,8.80
2023-04-12T18:42:59.562Z,8.80
2023-04-12T18:45:29.662Z,8.80
2023-04-12T18:48:00.427Z,8.70
2023-04-12T18:50:29.443Z,8.70
2023-04-12T18:52:57.856Z,8.60
2023-04-12T18:55:26.446Z,8.60
2023-04-12T18:57:55.107Z,8.60
2023-04-12T19:00:24.019Z,8.50
2023-04-12T19:02:54.220Z,8.50
2023-04-12T19:05:22.839Z,8.50
2023-04-12T19:07:52.229Z,8.50
2023-04-12T19:10:24.394Z,8.40
2023-04-12T19:12:52.701Z,8.50
2023-04-12T19:15:21.154Z,8.40
2023-04-12T19:17:49.962Z,8.40
2023-04-12T19:20:21.858Z,8.40
2023-04-12T19:22:50.176Z,8.40
2023-04-12T19:25:19.806Z,8.40
2023-04-12T19:27:48.499Z,8.40
2023-04-12T19:30:17.322Z,8.40
2023-04-12T19:32:45.782Z,8.40
2023-04-12T19:35:14.545Z,8.40
2023-04-12T19:37:44.788Z,8.40
2023-04-12T19:40:13.944Z,8.40
2023-04-12T19:42:42.868Z,8.50
2023-04-12T19:45:11.445Z,8.50
2023-04-12T19:47:44.927Z,8.50
2023-04-12T19:50:15.152Z,8.40
2023-04-12T19:52:45.769Z,8.40
2023-04-12T19:55:16.046Z,8.40
2023-04-12T19:57:45.164Z,8.40
2023-04-12T20:00:19.693Z,8.40
2023-04-12T20:02:48.833Z,8.40
2023-04-12T20:05:17.436Z,8.40
2023-04-12T20:07:47.337Z,8.40
2023-04-12T20:10:15.766Z,8.40
2023-04-12T20:12:44.442Z,8.40
2023-04-12T20:15:13.356Z,8.40
2023-04-12T20:17:43.084Z,8.40
2023-04-12T20:20:12.900Z,8.30
2023-04-12T20:22:42.290Z,8.30
2023-04-12T20:25:12.884Z,8.30
2023-04-12T20:27:42.645Z,8.20
2023-04-12T20:30:16.985Z,8.20
2023-04-12T20:32:45.784Z,8.20
2023-04-12T20:35:15.527Z,8.20
2023-04-12T20:37:43.973Z,8.20
2023-04-12T20:40:14.567Z,8.20
2023-04-12T20:42:45.046Z,8.20
2023-04-12T20:45:14.467Z,8.10
2023-04-12T20:47:42.939Z,8.10
2023-04-12T20:50:12.566Z,8.00
2023-04-12T20:52:41.226Z,8.00
2023-04-12T20:55:10.730Z,8.00
2023-04-12T20:57:40.619Z,8.00
2023-04-12T21:00:17.356Z,8.00
2023-04-12T21:02:46.952Z,8.00
2023-04-12T21:05:16.964Z,7.90
2023-04-12T21:07:46.947Z,8.00
2023-04-12T21:10:16.411Z,7.90
2023-04-12T21:12:47.214Z,7.90
2023-04-12T21:15:18.079Z,7.90
2023-04-12T21:17:46.797Z,7.90
2023-04-12T21:20:16.259Z,7.90
2023-04-12T21:22:48.011Z,7.90
2023-04-12T21:25:17.221Z,7.90
2023-04-12T21:27:47.844Z,7.90
2023-04-12T21:30:16.506Z,7.90
2023-04-12T21:32:45.026Z,7.90
2023-04-12T21:35:16.508Z,7.90
2023-04-12T21:37:45.069Z,7.90
2023-04-12T21:40:13.703Z,7.90
2023-04-12T21:42:44.359Z,8.00
2023-04-12T21:45:14.833Z,8.00
2023-04-12T21:47:43.705Z,8.00
2023-04-12T21:50:12.810Z,8.00
2023-04-12T21:52:41.732Z,8.00
2023-04-12T21:55:10.516Z,8.00
2023-04-12T21:57:38.981Z,8.10
2023-04-12T22:00:10.141Z,8.10
2023-04-12T22:02:40.487Z,8.20
2023-04-12T22:05:09.920Z,8.20
2023-04-12T22:07:41.240Z,8.30
2023-04-12T22:10:12.056Z,8.30
2023-04-12T22:12:41.053Z,8.40
2023-04-12T22:15:11.998Z,8.50
2023-04-12T22:17:44.182Z,8.40
2023-04-12T22:20:13.387Z,8.30
2023-04-12T22:22:42.920Z,8.30
2023-04-12T22:25:15.394Z,8.20
2023-04-12T22:27:46.338Z,8.20
2023-04-12T22:30:16.014Z,8.20
2023-04-12T22:32:46.012Z,8.20
2023-04-12T22:35:14.487Z,8.10
2023-04-12T22:37:43.357Z,8.00
2023-04-12T22:40:13.892Z,7.90
2023-04-12T22:42:46.724Z,7.80
2023-04-12T22:45:16.289Z,7.70
2023-04-12T22:47:46.379Z,7.60
2023-04-12T22:50:15.268Z,7.50
2023-04-12T22:52:43.777Z,7.50
2023-04-12T22:55:14.394Z,7.40
2023-04-12T22:57:42.953Z,7.40
2023-04-12T23:00:16.439Z,7.40
2023-04-12T23:02:48.568Z,7.30
2023-04-12T23:05:17.671Z,7.30
2023-04-12T23:07:46.323Z,7.30
2023-04-12T23:10:14.756Z,7.30
2023-04-12T23:12:43.073Z,7.30
2023-04-12T23:15:12.849Z,7.20
2023-04-12T23:17:41.324Z,7.30
2023-04-12T23:20:13.586Z,7.20
2023-04-12T23:22:57.440Z,7.20
2023-04-12T23:25:38.031Z,7.30
2023-04-12T23:28:09.826Z,7.30
2023-04-12T23:30:38.287Z,7.30
2023-04-12T23:33:09.127Z,7.30
2023-04-12T23:35:39.484Z,7.30
2023-04-12T23:38:09.598Z,7.30
2023-04-12T23:40:38.430Z,7.30
2023-04-12T23:43:08.635Z,7.30
2023-04-12T23:45:38.164Z,7.30
2023-04-12T23:48:07.168Z,7.30
2023-04-12T23:50:35.772Z,7.30
2023-04-12T23:53:06.125Z,7.30
2023-04-12T23:55:34.555Z,7.30
2023-04-12T23:58:03.000Z,7.30
